Webcam 1 more information Webcam 1


Webcam 2 more information Webcam 2


avvertimento per Temporali more information blitzortung!


avvertimento per Pioggia more information rain snow radar


altri nostri siti meteo:

TortoretometeolidoSito sul meteo

TortoretometeolidoSito sul meteo

Pomeziameteo 1Sito sul meteo

Pomeziameteo DashboardSito sul meteo

Caput FrigorisSito sul meteo

BarcellonameteoSito sul meteo

MeteoipassiSito sul meteo

ViterbometeoSito sul meteo

CastelnuovovomanometeoSito sul meteo



Ci sono vari avvisi meteo   Clicca qui per altre informazioni

Report METAR

   
LIBP - Pescara
Dati ricevuti: 15-12-2017 08:04
Poche nuvole  
Poche nuvole  
   Vento: S 35.2 km/h<br />Gust to 35.2 km/h
Vento: S 35.2 km/h
Gust to 35.2 km/h
Temperatura: 17°C
P.to Rugiada: 7°C
Umidita: 52%
Barometro: 1002 hPa
Nuvole: Poche nuvole
Visibilita: oltre 10 km
dettagli cloud: Poche nuvole 2000 ft
LIBP 150704Z 21019G29KT 9999 FEW020 17/07 Q1002
LIRZ - Perugia
Dati ricevuti: 15-12-2017 07:50
Molto nuvoloso  
Molto nuvoloso  
   Vento: Sud 16.7 km/h
Vento: Sud 16.7 km/h
Temperatura: 13°C
P.to Rugiada: 10°C
Umidita: 82%
Barometro: 1005 hPa
Nuvole: Molto nuvoloso
Visibilita: oltre 10 km
dettagli cloud: Molto nuvoloso 2500 ft
LIRZ 150650Z 17009KT 9999 BKN025 13/10 Q1005
LIQN - Rieti
Dati ricevuti: 14-12-2017 16:50
DATI Obsoleti
Nebbia, Molto nuvoloso  
Nebbia, Molto nuvoloso  
   Vento: SE 14.8 km/h
Vento: SE 14.8 km/h
Temperatura: 10°C
Temperatura Vento: 8°C
P.to Rugiada: 9°C
Umidita: 94%
Barometro: 1012 hPa
Nuvole: Molto nuvoloso
Visibilita: 5 km
dettagli cloud: Molto nuvoloso 2500 ft
LIQN 141550Z 13008KT 5000 BR BKN025 10/09 Q1012
LIPY - Falconara
Dati ricevuti: 15-12-2017 07:50
Parzialmente nuvoloso  
Parzialmente nuvoloso  
   Vento: Sud 14.8 km/h
Vento: Sud 14.8 km/h
Temperatura: 16°C
P.to Rugiada: 7°C
Umidita: 55%
Barometro: 1002 hPa
Nuvole: Parzialmente nuvoloso
Visibilita: oltre 10 km
dettagli cloud: Poche nuvole 3000 ft,
Parzialmente nuvoloso 5000 ft
LIPY 150650Z 19008KT 140V250 9999 FEW030 SCT050 16/07 Q1002
  

Script sviluppato da  Saratoga-weather.org Adattato per il modello da  Weerstation Leuven

Potete trovare le nostre info meteo anche a:

European Weather Network

Weather Underground

AWEKAS

Citizen Weather Observer Program (CWOP)

HAMweather, WeatherForYou, PWS Weather

Strumentazione usata:

Stazione meteo
Davis VP2

Programma gestore dati meteo
WVIEW

Server per i dati meteo
My Computer

Provider
My provider

Davis VP2

WVIEW

My Computer

My provider